Time;durP1;ratioP1;P1;durP2;ratioP2;P2;SDS_P1;SDS_P2;PMS_P1;PMS_P2;Temp;Humidity;BMP_temperature;BMP_pressure;BME280_temperature;BME280_humidity;BME280_pressure;Samples;Min_cycle;Max_cycle;Signal;HPM_P1;HPM_P2
2021/08/22 00:01:37;;;;;;;12.58;7.65;;;;;;;17.46;71.42;100619.83;1770780;81;21251;-58
2021/08/22 00:04:43;;;;;;;10.65;7.85;;;;;;;17.45;71.07;100616.75;1775234;79;21223;-58
2021/08/22 00:07:50;;;;;;;12.98;7.72;;;;;;;17.44;70.77;100622.81;1782484;80;21409;-59
2021/08/22 00:10:56;;;;;;;13.15;8.38;;;;;;;17.46;70.76;100629.52;1783381;79;21156;-59
2021/08/22 00:14:02;;;;;;;11.90;7.33;;;;;;;17.47;70.81;100628.48;1782412;80;21290;-59
2021/08/22 00:17:09;;;;;;;11.90;7.65;;;;;;;17.44;71.04;100633.89;1782882;78;21160;-58
2021/08/22 00:20:18;;;;;;;12.15;7.50;;;;;;;17.37;71.12;100631.64;1779043;80;21394;-58
2021/08/22 00:23:23;;;;;;;10.93;7.55;;;;;;;17.31;71.24;100639.94;1788862;79;21231;-58
2021/08/22 00:26:28;;;;;;;12.90;7.10;;;;;;;17.22;71.60;100646.77;1793141;79;21315;-58
2021/08/22 00:29:34;;;;;;;8.83;6.45;;;;;;;17.12;72.06;100644.94;1768029;80;21367;-58
2021/08/22 00:32:40;;;;;;;11.38;6.90;;;;;;;17.07;72.51;100642.81;1765002;81;21315;-58
2021/08/22 00:35:46;;;;;;;10.25;6.72;;;;;;;17.06;72.53;100638.32;1746038;82;21367;-58
2021/08/22 00:38:53;;;;;;;10.75;7.47;;;;;;;17.03;72.73;100638.75;1786779;80;21361;-59
2021/08/22 00:41:59;;;;;;;11.70;7.12;;;;;;;16.99;72.97;100639.38;1775271;79;21768;-59
2021/08/22 00:45:04;;;;;;;11.35;7.05;;;;;;;16.96;73.33;100645.34;1800825;78;21260;-59
2021/08/22 00:48:12;;;;;;;12.25;7.80;;;;;;;16.97;73.42;100637.35;1765098;81;21181;-58
2021/08/22 00:51:21;;;;;;;11.08;7.47;;;;;;;16.92;73.57;100640.75;1738084;82;22011;-58
2021/08/22 00:54:28;;;;;;;12.53;7.30;;;;;;;16.88;73.72;100640.01;1783544;79;21382;-58
2021/08/22 00:57:35;;;;;;;10.65;6.85;;;;;;;16.86;73.83;100644.89;1800554;79;21721;-58
2021/08/22 01:00:41;;;;;;;11.55;7.28;;;;;;;16.86;73.90;100636.59;1800778;79;21323;-57
2021/08/22 01:03:54;;;;;;;13.62;6.90;;;;;;;16.85;73.86;100637.67;1801168;79;21363;-57
2021/08/22 01:07:30;;;;;;;11.75;6.60;;;;;;;16.85;73.68;100652.35;1770193;79;21207;-57
2021/08/22 01:10:36;;;;;;;9.18;6.42;;;;;;;16.81;73.46;100646.08;1767157;78;21235;-57
2021/08/22 01:13:44;;;;;;;11.85;7.28;;;;;;;16.73;73.09;100638.80;1776383;79;21200;-58
2021/08/22 01:16:59;;;;;;;11.80;7.08;;;;;;;16.66;73.16;100646.77;1767228;81;21196;-57
2021/08/22 01:20:23;;;;;;;11.25;6.62;;;;;;;16.57;73.42;100653.00;1774250;79;21263;-57
2021/08/22 01:23:28;;;;;;;8.78;6.72;;;;;;;16.55;73.41;100652.91;1773480;80;21219;-58
2021/08/22 01:26:43;;;;;;;12.88;6.58;;;;;;;16.54;73.44;100658.13;1759373;81;21416;-58
2021/08/22 01:29:53;;;;;;;8.98;6.37;;;;;;;16.48;73.42;100658.41;1759660;81;21342;-58
2021/08/22 01:33:00;;;;;;;9.25;6.72;;;;;;;16.40;73.73;100658.55;1771807;80;21184;-59
2021/08/22 01:36:06;;;;;;;8.80;6.58;;;;;;;16.36;74.03;100661.42;1765784;81;21172;-59
2021/08/22 01:39:12;;;;;;;12.63;6.62;;;;;;;16.32;74.14;100658.21;1765112;81;21374;-59
2021/08/22 01:42:18;;;;;;;14.90;6.92;;;;;;;16.25;74.25;100657.31;1767369;81;21193;-58
2021/08/22 01:45:25;;;;;;;10.68;6.95;;;;;;;16.25;74.69;100657.31;1766580;81;21216;-57
2021/08/22 01:48:31;;;;;;;9.03;6.37;;;;;;;16.25;74.75;100662.84;1766459;80;21346;-59
2021/08/22 01:51:39;;;;;;;9.53;6.95;;;;;;;16.21;74.80;100664.33;1765881;81;21847;-58
2021/08/22 01:54:45;;;;;;;10.95;6.83;;;;;;;16.18;74.96;100668.02;1767542;81;21362;-60
2021/08/22 01:57:53;;;;;;;9.68;6.62;;;;;;;16.18;75.16;100666.64;1773709;80;21188;-59
2021/08/22 02:00:58;;;;;;;10.75;6.60;;;;;;;16.19;75.20;100663.67;1767242;81;21625;-58
2021/08/22 02:04:23;;;;;;;12.05;6.72;;;;;;;16.15;75.17;100665.67;1773276;80;21356;-58
2021/08/22 02:07:31;;;;;;;14.98;7.10;;;;;;;16.08;75.44;100664.77;1768248;80;21356;-58
2021/08/22 02:10:40;;;;;;;10.35;6.28;;;;;;;16.02;75.84;100667.84;1726967;82;21310;-59
2021/08/22 02:13:47;;;;;;;11.43;7.00;;;;;;;15.96;76.13;100664.52;1765252;81;21354;-58
2021/08/22 02:16:57;;;;;;;10.58;6.53;;;;;;;15.94;76.41;100665.24;1727622;82;21287;-59
2021/08/22 02:20:03;;;;;;;10.70;7.00;;;;;;;15.91;76.54;100668.93;1747784;81;21267;-59
2021/08/22 02:23:08;;;;;;;10.23;6.72;;;;;;;15.91;76.92;100667.03;1727107;82;21234;-58
2021/08/22 02:26:13;;;;;;;14.85;7.00;;;;;;;15.90;76.94;100670.00;1765102;81;21193;-58
2021/08/22 02:29:19;;;;;;;8.13;5.83;;;;;;;15.90;77.11;100668.62;1746296;82;21276;-58
2021/08/22 02:32:24;;;;;;;8.20;6.30;;;;;;;15.93;77.00;100672.34;1787116;80;21335;-57
2021/08/22 02:35:31;;;;;;;12.18;6.80;;;;;;;15.96;76.94;100671.42;1765144;81;21234;-58
2021/08/22 02:38:35;;;;;;;11.28;6.60;;;;;;;15.97;76.82;100675.88;1746205;82;21411;-58
2021/08/22 02:41:41;;;;;;;13.80;6.17;;;;;;;15.99;76.68;100675.16;1787105;80;21200;-59
2021/08/22 02:44:47;;;;;;;12.00;7.00;;;;;;;16.00;76.44;100685.13;1765228;81;21378;-60
2021/08/22 02:47:58;;;;;;;9.75;6.60;;;;;;;16.01;76.20;100679.95;1746163;82;21204;-59
2021/08/22 02:51:02;;;;;;;10.85;6.22;;;;;;;15.98;75.93;100680.87;1746080;82;21363;-60
2021/08/22 02:54:08;;;;;;;12.90;6.92;;;;;;;15.90;76.08;100681.88;1778976;79;21737;-59
2021/08/22 02:57:14;;;;;;;12.13;7.28;;;;;;;15.83;76.35;100681.00;1778671;80;21345;-60
2021/08/22 03:00:21;;;;;;;10.15;6.90;;;;;;;15.83;76.51;100686.52;1813388;78;21187;-59
2021/08/22 03:03:26;;;;;;;11.50;7.60;;;;;;;15.86;76.46;100683.87;1767861;81;21407;-59
2021/08/22 03:06:32;;;;;;;12.90;7.50;;;;;;;15.90;76.41;100680.49;1775978;79;21189;-59
2021/08/22 03:09:38;;;;;;;14.65;7.20;;;;;;;15.93;76.40;100680.11;1768711;79;21169;-58
2021/08/22 03:12:44;;;;;;;15.23;7.55;;;;;;;15.95;76.27;100679.36;1744829;82;21204;-58
2021/08/22 03:15:49;;;;;;;17.80;8.30;;;;;;;15.97;76.16;100678.64;1804935;79;21864;-58
2021/08/22 03:18:55;;;;;;;10.13;7.00;;;;;;;16.01;75.92;100671.67;1761070;80;21359;-58
2021/08/22 03:22:00;;;;;;;14.83;7.05;;;;;;;16.04;75.69;100679.54;1769751;80;21197;-58
2021/08/22 03:25:05;;;;;;;10.28;7.53;;;;;;;16.07;75.46;100687.41;1771653;80;21213;-58
2021/08/22 03:28:10;;;;;;;14.00;7.70;;;;;;;16.11;75.22;100698.91;1772126;80;21267;-59
2021/08/22 03:31:17;;;;;;;14.63;8.85;;;;;;;16.14;75.07;100698.50;1766196;81;21227;-58
2021/08/22 03:34:22;;;;;;;13.98;7.58;;;;;;;16.13;74.98;100703.16;1805906;79;21690;-57
2021/08/22 03:37:29;;;;;;;11.90;7.60;;;;;;;16.12;74.97;100722.19;1767667;81;21215;-58
2021/08/22 03:40:33;;;;;;;11.35;7.47;;;;;;;16.10;74.82;100714.63;1737205;82;21789;-58
2021/08/22 03:43:39;;;;;;;12.35;7.60;;;;;;;16.11;74.67;100716.32;1768247;80;21358;-58
2021/08/22 03:46:44;;;;;;;11.10;7.25;;;;;;;16.12;74.71;100715.28;1745403;82;21296;-58
2021/08/22 03:49:51;;;;;;;10.80;7.62;;;;;;;16.21;74.81;100714.57;1805941;79;21891;-59
2021/08/22 03:52:56;;;;;;;15.18;8.25;;;;;;;16.27;74.88;100709.08;1805804;79;21196;-59
2021/08/22 03:56:01;;;;;;;12.28;8.40;;;;;;;16.36;75.09;100714.75;1804852;79;21347;-59
2021/08/22 03:59:09;;;;;;;12.28;8.23;;;;;;;16.49;75.20;100711.23;1767666;80;21926;-59
2021/08/22 04:02:16;;;;;;;16.25;8.63;;;;;;;16.63;74.54;100717.68;1744523;82;21196;-60
2021/08/22 04:05:41;;;;;;;15.70;8.88;;;;;;;16.78;74.04;100712.83;1805258;79;21192;-60
2021/08/22 04:08:47;;;;;;;17.60;9.13;;;;;;;16.93;73.74;100716.30;1805908;77;21359;-58
2021/08/22 04:11:53;;;;;;;19.55;9.65;;;;;;;17.06;73.19;100719.92;1778808;79;21323;-59
2021/08/22 04:14:59;;;;;;;17.07;10.68;;;;;;;17.18;72.93;100716.02;1773413;81;21365;-58
2021/08/22 04:18:04;;;;;;;13.48;9.68;;;;;;;17.28;72.77;100710.38;1811315;77;21319;-59
2021/08/22 04:21:11;;;;;;;15.83;9.53;;;;;;;17.40;72.52;100710.61;1811672;79;21215;-59
2021/08/22 04:24:19;;;;;;;13.60;9.05;;;;;;;17.50;72.38;100711.95;1762209;80;21209;-59
2021/08/22 04:27:26;;;;;;;12.45;8.63;;;;;;;17.60;72.48;100712.36;1812152;79;21716;-57
2021/08/22 04:30:33;;;;;;;11.93;8.35;;;;;;;17.72;72.81;100720.88;1811939;79;21330;-58
2021/08/22 04:33:38;;;;;;;11.50;8.08;;;;;;;17.80;72.89;100715.13;1786677;78;21468;-59
2021/08/22 04:36:44;;;;;;;12.85;8.00;;;;;;;17.88;72.68;100719.92;1811822;79;21298;-58
2021/08/22 04:39:50;;;;;;;13.08;7.65;;;;;;;17.96;72.11;100716.59;1811826;78;21200;-58
2021/08/22 04:42:55;;;;;;;20.15;9.13;;;;;;;18.07;71.80;100718.70;1811815;79;21255;-58
2021/08/22 04:46:03;;;;;;;15.68;9.43;;;;;;;18.17;70.91;100722.72;1811819;79;21358;-58
2021/08/22 04:49:08;;;;;;;12.85;8.70;;;;;;;18.27;70.08;100725.91;1811793;78;21213;-58
2021/08/22 04:52:15;;;;;;;14.80;8.40;;;;;;;18.37;69.69;100737.40;1811791;79;21184;-58
2021/08/22 04:55:21;;;;;;;13.85;8.75;;;;;;;18.46;69.35;100732.48;1811906;78;21791;-59
2021/08/22 04:58:27;;;;;;;14.15;9.38;;;;;;;18.55;69.20;100743.11;1811836;78;21219;-59
2021/08/22 05:01:33;;;;;;;16.25;9.93;;;;;;;18.63;69.28;100735.94;1811728;79;21208;-58
2021/08/22 05:04:43;;;;;;;15.80;9.95;;;;;;;18.70;69.56;100738.16;1778480;79;21229;-58
2021/08/22 05:07:55;;;;;;;16.45;10.78;;;;;;;18.78;69.45;100736.53;1778190;80;21371;-58
2021/08/22 05:10:57;;;;;;;17.57;10.60;;;;;;;18.86;68.98;100747.38;1725113;81;21241;-58
2021/08/22 05:14:02;;;;;;;11.83;8.65;;;;;;;18.97;68.73;100743.91;1724957;82;21308;-58
2021/08/22 05:17:09;;;;;;;14.23;8.58;;;;;;;19.09;68.45;100747.67;1724782;83;21193;-57
2021/08/22 05:20:16;;;;;;;12.53;8.23;;;;;;;19.24;67.82;100751.53;1724780;81;21787;-58
2021/08/22 05:23:21;;;;;;;14.95;7.25;;;;;;;19.37;66.63;100750.63;1724781;82;21284;-58
2021/08/22 05:26:27;;;;;;;10.03;6.58;;;;;;;19.50;65.78;100766.68;1724888;83;22043;-59
2021/08/22 05:29:33;;;;;;;10.63;6.30;;;;;;;19.61;65.35;100753.45;1725164;82;21242;-58
2021/08/22 05:32:40;;;;;;;8.28;6.12;;;;;;;19.72;65.12;100754.11;1725247;83;21224;-56
2021/08/22 05:35:46;;;;;;;11.43;6.17;;;;;;;19.84;64.94;100759.77;1725196;83;21224;-57
2021/08/22 05:38:53;;;;;;;9.88;6.55;;;;;;;19.92;64.37;100761.73;1725122;82;21252;-58
2021/08/22 05:41:58;;;;;;;9.73;6.17;;;;;;;19.99;64.13;100765.84;1725121;83;21241;-57
2021/08/22 05:45:04;;;;;;;8.33;6.08;;;;;;;20.07;63.67;100771.12;1725341;82;21313;-57
2021/08/22 05:48:11;;;;;;;8.18;6.40;;;;;;;20.12;63.01;100767.12;1725196;82;21210;-59
2021/08/22 05:51:25;;;;;;;9.20;6.65;;;;;;;20.17;62.69;100767.33;1725154;82;21214;-58
2021/08/22 05:54:29;;;;;;;8.65;6.58;;;;;;;20.22;62.57;100766.94;1725248;82;21276;-57
2021/08/22 05:57:35;;;;;;;11.10;7.10;;;;;;;20.32;62.42;100771.97;1725375;83;21209;-57
2021/08/22 06:00:41;;;;;;;12.75;6.47;;;;;;;20.38;61.75;100765.48;1725190;83;21216;-58
2021/08/22 06:03:46;;;;;;;14.85;7.00;;;;;;;20.43;61.79;100764.25;1724982;82;21292;-58
2021/08/22 06:06:53;;;;;;;9.80;7.00;;;;;;;20.50;62.06;100766.44;1729367;83;21228;-59
2021/08/22 06:09:59;;;;;;;9.65;6.85;;;;;;;20.59;61.70;100771.47;1748005;81;21882;-58
2021/08/22 06:13:04;;;;;;;9.88;6.28;;;;;;;20.68;61.33;100771.45;1729309;81;21229;-58
2021/08/22 06:16:09;;;;;;;12.13;6.78;;;;;;;20.76;61.20;100786.45;1743535;82;21256;-57
2021/08/22 06:19:14;;;;;;;9.85;6.83;;;;;;;20.83;60.56;100776.63;1743474;81;21768;-57
2021/08/22 06:22:19;;;;;;;8.93;6.55;;;;;;;20.90;60.20;100781.56;1743553;82;21754;-58
2021/08/22 06:25:26;;;;;;;9.83;6.67;;;;;;;20.98;59.95;100784.62;1743610;81;21264;-58
2021/08/22 06:28:30;;;;;;;14.33;7.17;;;;;;;21.05;59.56;100784.84;1732746;82;21217;-58
2021/08/22 06:31:36;;;;;;;11.75;6.75;;;;;;;21.11;59.45;100784.42;1733418;82;21351;-57
2021/08/22 06:34:42;;;;;;;11.35;7.47;;;;;;;21.16;59.48;100779.87;1766415;80;21371;-58
2021/08/22 06:37:51;;;;;;;11.43;6.78;;;;;;;21.27;59.31;100792.14;1766259;81;21419;-57
2021/08/22 06:40:55;;;;;;;8.58;6.17;;;;;;;21.32;58.25;100798.72;1766856;79;21358;-58
2021/08/22 06:44:04;;;;;;;14.87;6.17;;;;;;;21.34;57.75;100800.73;1767421;79;21954;-57
2021/08/22 06:47:11;;;;;;;11.20;6.70;;;;;;;21.32;57.78;100800.11;1769906;79;21222;-59
2021/08/22 06:50:18;;;;;;;11.43;6.20;;;;;;;21.32;58.22;100795.07;1776698;79;21237;-59
2021/08/22 06:53:24;;;;;;;11.35;5.67;;;;;;;21.42;57.77;100792.58;1767029;79;21388;-58
2021/08/22 06:56:32;;;;;;;8.23;5.28;;;;;;;21.50;57.21;100790.29;1768718;79;21319;-58
2021/08/22 06:59:38;;;;;;;9.43;4.90;;;;;;;21.62;57.11;100788.41;1768764;79;21359;-58
2021/08/22 07:02:44;;;;;;;10.30;5.42;;;;;;;21.77;57.13;100794.41;1766383;80;21916;-57
2021/08/22 07:05:51;;;;;;;8.85;4.92;;;;;;;21.91;55.90;100791.70;1765081;80;21367;-57
2021/08/22 07:08:59;;;;;;;10.38;5.42;;;;;;;22.05;55.37;100791.81;1780018;79;21421;-58
2021/08/22 07:12:07;;;;;;;7.50;4.97;;;;;;;22.19;55.23;100791.88;1771665;80;21232;-59
2021/08/22 07:15:19;;;;;;;6.92;5.17;;;;;;;22.35;54.37;100788.91;1808265;79;21363;-58
2021/08/22 07:18:24;;;;;;;9.30;5.17;;;;;;;22.51;54.47;100785.92;1804252;79;21415;-58
2021/08/22 07:21:30;;;;;;;12.07;5.87;;;;;;;22.68;54.84;100791.09;1803528;79;21338;-59
2021/08/22 07:24:35;;;;;;;8.95;5.25;;;;;;;22.79;54.75;100798.06;1803754;79;21324;-58
2021/08/22 07:27:41;;;;;;;11.05;5.67;;;;;;;22.89;54.56;100801.62;1803900;79;21366;-58
2021/08/22 07:30:47;;;;;;;12.15;4.75;;;;;;;22.98;53.96;100803.80;1803242;79;21350;-60
2021/08/22 07:33:54;;;;;;;8.83;5.20;;;;;;;23.11;54.51;100806.85;1771612;79;21216;-59
2021/08/22 07:37:04;;;;;;;9.83;5.47;;;;;;;23.21;54.14;100805.68;1736663;82;21349;-59
2021/08/22 07:40:10;;;;;;;7.25;5.28;;;;;;;23.32;54.04;100797.84;1737170;81;21757;-59
2021/08/22 07:43:17;;;;;;;7.87;5.47;;;;;;;23.35;54.12;100808.52;1765564;81;21869;-59
2021/08/22 07:46:24;;;;;;;9.05;5.58;;;;;;;23.36;54.40;100806.01;1734808;82;21648;-59
2021/08/22 07:49:30;;;;;;;11.53;5.90;;;;;;;23.36;54.13;100811.05;1803796;79;21319;-57
2021/08/22 07:52:36;;;;;;;7.37;5.03;;;;;;;23.43;53.93;100813.17;1802626;79;21350;-58
2021/08/22 07:55:41;;;;;;;6.75;5.10;;;;;;;23.50;53.32;100807.41;1802454;79;21225;-57
2021/08/22 07:58:46;;;;;;;8.13;4.87;;;;;;;23.63;53.26;100815.48;1801800;79;21918;-58
2021/08/22 08:01:51;;;;;;;6.72;4.40;;;;;;;23.76;52.14;100815.19;1764239;80;21201;-57
2021/08/22 08:04:57;;;;;;;11.73;4.53;;;;;;;23.81;51.55;100815.28;1763440;80;21253;-58
2021/08/22 08:08:05;;;;;;;7.05;4.10;;;;;;;23.80;51.10;100813.56;1735265;82;21205;-58
2021/08/22 08:11:12;;;;;;;9.40;4.60;;;;;;;23.77;51.48;100812.67;1808730;79;21347;-59
2021/08/22 08:14:18;;;;;;;8.10;4.45;;;;;;;23.77;51.80;100815.47;1793068;79;21746;-57
2021/08/22 08:17:23;;;;;;;10.08;4.58;;;;;;;23.75;51.39;100805.11;1765389;80;21367;-58
2021/08/22 08:20:28;;;;;;;8.63;4.30;;;;;;;23.75;51.55;100806.52;1803429;79;21379;-58
2021/08/22 08:23:34;;;;;;;6.05;3.70;;;;;;;23.80;51.96;100806.58;1802796;79;21312;-59
2021/08/22 08:26:38;;;;;;;8.55;4.40;;;;;;;23.88;51.44;100806.74;1763979;80;21730;-59
2021/08/22 08:29:44;;;;;;;6.50;4.30;;;;;;;23.95;51.34;100804.06;1710224;80;21566;-58
2021/08/22 08:32:50;;;;;;;8.10;4.55;;;;;;;24.04;51.63;100796.16;1689397;85;21714;-58
2021/08/22 08:35:58;;;;;;;7.37;4.62;;;;;;;24.14;51.69;100797.70;1755436;81;21228;-58
2021/08/22 08:39:06;;;;;;;9.95;5.15;;;;;;;24.25;51.80;100799.02;1773189;79;21219;-59
2021/08/22 08:42:30;;;;;;;8.23;4.30;;;;;;;24.39;51.84;100796.16;1736129;82;21169;-58
2021/08/22 08:46:03;;;;;;;8.15;4.42;;;;;;;24.53;51.58;100797.50;1788492;79;21146;-58
2021/08/22 08:49:59;;;;;;;6.72;4.25;;;;;;;24.60;50.80;100794.52;1794886;78;21212;-57
2021/08/22 08:53:13;;;;;;;7.25;4.28;;;;;;;24.66;49.14;100799.09;1768441;81;21344;-58
2021/08/22 08:56:32;;;;;;;6.30;3.98;;;;;;;24.70;49.87;100808.17;1770343;81;21336;-57
2021/08/22 08:59:46;;;;;;;9.35;3.67;;;;;;;24.77;49.82;100799.02;1774008;79;21816;-58
2021/08/22 09:02:52;;;;;;;6.30;4.22;;;;;;;24.82;48.98;100799.09;1774092;81;21344;-57
2021/08/22 09:06:27;;;;;;;5.78;4.08;;;;;;;24.87;49.74;100793.56;1777375;80;21212;-57
2021/08/22 09:10:09;;;;;;;5.72;4.67;;;;;;;24.94;49.41;100799.80;1774135;79;21383;-57
2021/08/22 09:13:59;;;;;;;6.55;4.50;;;;;;;25.01;49.94;100802.42;1773827;79;21192;-58
2021/08/22 09:17:49;;;;;;;8.20;4.30;;;;;;;25.08;48.46;100802.23;1738745;80;21322;-57
2021/08/22 09:21:37;;;;;;;6.72;4.22;;;;;;;25.22;48.02;100796.52;1737013;82;21552;-57
2021/08/22 09:25:33;;;;;;;6.47;4.22;;;;;;;25.31;48.38;100794.97;1738359;81;21379;-57
2021/08/22 09:29:20;;;;;;;6.62;5.05;;;;;;;25.27;48.28;100807.80;1737816;81;21321;-58
2021/08/22 09:33:10;;;;;;;6.00;4.10;;;;;;;25.21;48.16;100801.30;1756642;79;21248;-59
2021/08/22 09:36:45;;;;;;;5.05;4.08;;;;;;;25.38;47.25;100792.28;1738587;81;21177;-57
2021/08/22 09:40:44;;;;;;;6.33;3.60;;;;;;;25.65;47.25;100791.75;1743146;81;22073;-57
2021/08/22 09:44:27;;;;;;;6.00;3.98;;;;;;;25.81;47.12;100792.73;1759460;79;21784;-59
2021/08/22 09:47:46;;;;;;;8.63;4.45;;;;;;;25.70;46.90;100795.16;1762611;81;21312;-57
2021/08/22 09:51:34;;;;;;;6.05;4.12;;;;;;;25.51;47.12;100790.48;1760194;81;21224;-57
2021/08/22 09:55:10;;;;;;;7.78;3.75;;;;;;;25.32;47.98;100790.50;1752903;80;21867;-58
2021/08/22 09:58:42;;;;;;;5.35;3.77;;;;;;;25.11;49.07;100803.11;1749758;80;21169;-57
2021/08/22 10:02:10;;;;;;;7.50;4.05;;;;;;;24.93;49.75;100802.33;1763100;81;21413;-57
2021/08/22 10:05:33;;;;;;;6.03;4.50;;;;;;;24.81;50.51;100800.21;1769919;79;21982;-57
2021/08/22 10:08:43;;;;;;;5.35;4.30;;;;;;;24.79;50.50;100799.61;1767174;79;21192;-57
2021/08/22 10:12:08;;;;;;;5.42;4.53;;;;;;;24.84;50.59;100803.89;1765365;81;21319;-58
2021/08/22 10:15:15;;;;;;;6.95;4.15;;;;;;;24.96;50.48;100796.20;1778842;80;21260;-57
2021/08/22 10:18:32;;;;;;;4.62;3.67;;;;;;;25.18;50.75;100798.16;1742811;82;21171;-58
2021/08/22 10:21:39;;;;;;;5.87;4.28;;;;;;;25.36;49.22;100799.24;1734670;82;21180;-58
2021/08/22 10:24:50;;;;;;;6.15;4.30;;;;;;;25.33;49.30;100799.20;1742209;82;21362;-59
2021/08/22 10:28:03;;;;;;;5.03;3.95;;;;;;;25.35;49.26;100806.83;1735416;82;21196;-58
2021/08/22 10:31:09;;;;;;;4.83;3.83;;;;;;;25.37;49.04;100807.97;1731172;82;21702;-57
2021/08/22 10:34:31;;;;;;;4.87;3.98;;;;;;;25.43;48.50;100806.91;1775161;80;21231;-57
2021/08/22 10:37:38;;;;;;;5.50;4.00;;;;;;;25.55;48.37;100806.19;1739453;81;21275;-57
2021/08/22 10:40:44;;;;;;;5.97;3.80;;;;;;;25.69;48.16;100813.94;1734648;82;21826;-56
2021/08/22 10:43:49;;;;;;;6.42;3.83;;;;;;;25.79;47.81;100807.58;1732968;81;21498;-57
2021/08/22 10:46:55;;;;;;;6.45;4.00;;;;;;;25.88;47.49;100805.98;1753541;81;21790;-57
2021/08/22 10:50:04;;;;;;;6.65;4.00;;;;;;;25.87;47.63;100795.88;1732559;81;21358;-57
2021/08/22 10:53:29;;;;;;;6.85;3.85;;;;;;;25.95;47.85;100801.87;1684172;83;21178;-57
2021/08/22 10:56:43;;;;;;;8.90;3.85;;;;;;;26.02;46.67;100801.69;1696479;84;21302;-56
2021/08/22 10:59:56;;;;;;;5.65;3.65;;;;;;;26.19;46.51;100799.03;1756006;81;21777;-58
2021/08/22 11:03:12;;;;;;;4.03;3.55;;;;;;;26.34;45.86;100782.84;1732113;82;21329;-58
2021/08/22 11:06:20;;;;;;;4.72;3.60;;;;;;;26.54;45.62;100788.63;1733996;81;21923;-57
2021/08/22 11:09:43;;;;;;;7.05;3.72;;;;;;;26.69;45.59;100788.73;1742049;81;21222;-58
2021/08/22 11:12:49;;;;;;;5.08;3.87;;;;;;;26.72;45.34;100785.96;1741334;81;21238;-58
2021/08/22 11:15:54;;;;;;;4.50;3.40;;;;;;;26.59;44.81;100797.09;1731180;82;21729;-58
2021/08/22 11:19:02;;;;;;;7.62;3.60;;;;;;;26.44;44.52;100796.97;1732841;81;21379;-57
2021/08/22 11:22:08;;;;;;;5.22;3.72;;;;;;;26.32;44.67;100803.34;1792807;80;21307;-57
2021/08/22 11:25:14;;;;;;;7.08;3.85;;;;;;;26.23;45.24;100808.59;1792950;80;21184;-57
2021/08/22 11:28:24;;;;;;;7.17;3.95;;;;;;;26.01;45.71;100811.20;1793270;80;21308;-57
2021/08/22 11:31:33;;;;;;;7.10;4.30;;;;;;;25.72;46.85;100812.00;1794885;79;21673;-58
2021/08/22 11:34:40;;;;;;;7.42;3.90;;;;;;;25.72;46.85;100812.00;1794952;79;22216;-58
2021/08/22 11:37:45;;;;;;;6.55;3.70;;;;;;;25.75;46.87;100814.84;1794662;80;21281;-58
2021/08/22 11:40:50;;;;;;;4.00;3.42;;;;;;;25.87;46.28;100819.73;1773167;80;21344;-57
2021/08/22 11:44:02;;;;;;;7.95;3.62;;;;;;;26.03;45.30;100808.98;1793304;79;21410;-57
2021/08/22 11:47:08;;;;;;;5.62;3.50;;;;;;;26.15;45.72;100818.05;1792728;79;21979;-57
2021/08/22 11:50:15;;;;;;;4.62;3.60;;;;;;;26.19;45.12;100810.27;1778988;80;21271;-59
2021/08/22 11:53:22;;;;;;;4.92;3.58;;;;;;;26.17;45.26;100801.25;1764845;80;21753;-58
2021/08/22 11:56:30;;;;;;;6.85;3.72;;;;;;;26.23;45.98;100801.58;1768343;80;21818;-58
2021/08/22 11:59:37;;;;;;;7.10;3.50;;;;;;;26.29;45.58;100800.50;1776047;80;21840;-58
2021/08/22 12:02:42;;;;;;;6.80;3.40;;;;;;;26.33;45.35;100799.41;1760887;81;21208;-56
2021/08/22 12:06:09;;;;;;;7.97;4.28;;;;;;;26.30;45.43;100793.79;1794437;79;21288;-58
2021/08/22 12:09:17;;;;;;;7.83;4.00;;;;;;;26.21;45.33;100796.78;1783844;80;21349;-57
2021/08/22 12:12:28;;;;;;;5.33;4.10;;;;;;;26.14;45.78;100796.18;1789558;80;21335;-56
2021/08/22 12:15:44;;;;;;;7.62;4.05;;;;;;;26.27;45.66;100794.88;1799287;79;21217;-57
2021/08/22 12:18:52;;;;;;;4.92;3.42;;;;;;;26.29;44.71;100785.05;1796806;78;21324;-56
2021/08/22 12:21:56;;;;;;;4.72;3.37;;;;;;;26.19;44.83;100782.73;1790879;79;21328;-56
2021/08/22 12:25:05;;;;;;;5.10;3.25;;;;;;;26.10;45.22;100789.97;1784802;78;21951;-57
2021/08/22 12:28:34;;;;;;;5.30;3.37;;;;;;;26.02;45.01;100794.67;1786782;79;21216;-57
2021/08/22 12:31:44;;;;;;;3.65;2.90;;;;;;;26.03;44.58;100786.53;1763775;81;21201;-55
2021/08/22 12:34:50;;;;;;;4.72;3.50;;;;;;;26.02;43.77;100787.07;1754203;80;21920;-57
2021/08/22 12:37:57;;;;;;;5.58;3.80;;;;;;;25.90;44.05;100786.92;1736754;82;21852;-55
2021/08/22 12:41:25;;;;;;;7.58;3.83;;;;;;;25.88;44.45;100793.35;1785234;79;21225;-57
2021/08/22 12:44:34;;;;;;;7.60;4.45;;;;;;;25.85;44.17;100798.95;1751933;81;21753;-56
2021/08/22 12:47:40;;;;;;;3.90;3.00;;;;;;;25.82;43.84;100791.07;1729027;82;21347;-57
2021/08/22 12:50:46;;;;;;;3.87;2.77;;;;;;;25.77;43.36;100795.77;1726645;83;21205;-58
2021/08/22 12:53:51;;;;;;;5.28;2.60;;;;;;;25.72;43.41;100802.76;1763530;79;21237;-57
2021/08/22 12:57:00;;;;;;;3.02;2.60;;;;;;;25.71;43.68;100796.29;1771668;79;21563;-56
2021/08/22 13:00:05;;;;;;;3.55;2.60;;;;;;;25.76;43.84;100801.10;1790044;79;21208;-56
2021/08/22 13:03:12;;;;;;;3.98;2.40;;;;;;;25.79;43.35;100796.36;1772489;79;21895;-56
2021/08/22 13:06:20;;;;;;;2.83;2.47;;;;;;;25.78;43.52;100801.11;1767535;81;21193;-56
2021/08/22 13:09:28;;;;;;;4.62;2.10;;;;;;;25.73;43.21;100799.69;1735707;81;21300;-55
2021/08/22 13:12:35;;;;;;;2.77;2.20;;;;;;;25.65;42.94;100804.37;1736773;81;21351;-56
2021/08/22 13:15:40;;;;;;;3.30;2.17;;;;;;;25.61;42.33;100808.80;1738095;81;21838;-56
2021/08/22 13:18:47;;;;;;;3.87;2.67;;;;;;;25.61;41.77;100798.16;1742564;81;21307;-57
2021/08/22 13:21:58;;;;;;;3.02;2.20;;;;;;;25.61;41.58;100805.99;1720899;83;21204;-56
2021/08/22 13:25:04;;;;;;;5.12;2.42;;;;;;;25.68;41.61;100801.58;1760773;81;21200;-56
2021/08/22 13:28:10;;;;;;;5.05;2.33;;;;;;;25.77;41.00;100803.64;1769989;80;21386;-57
2021/08/22 13:31:16;;;;;;;4.17;2.52;;;;;;;25.79;40.91;100808.98;1735348;81;21153;-56
2021/08/22 13:34:21;;;;;;;4.35;1.98;;;;;;;25.78;40.93;100806.72;1761389;80;21334;-56
2021/08/22 13:37:27;;;;;;;3.08;1.92;;;;;;;25.80;40.88;100805.09;1761181;81;21169;-57
2021/08/22 13:40:33;;;;;;;3.72;2.10;;;;;;;25.77;40.25;100806.99;1759658;81;21323;-57
2021/08/22 13:43:38;;;;;;;4.08;2.30;;;;;;;25.71;40.23;100805.25;1759604;81;21845;-56
2021/08/22 13:46:43;;;;;;;2.70;1.80;;;;;;;25.66;40.27;100808.85;1756590;81;21312;-56
2021/08/22 13:49:49;;;;;;;2.85;2.10;;;;;;;25.62;40.22;100813.86;1767885;81;21669;-57
2021/08/22 13:52:55;;;;;;;4.92;2.75;;;;;;;25.57;39.57;100813.80;1757752;81;21170;-57
2021/08/22 13:56:01;;;;;;;2.52;1.50;;;;;;;25.52;39.80;100809.53;1735562;82;21352;-57
2021/08/22 13:59:08;;;;;;;3.95;1.80;;;;;;;25.50;39.66;100814.00;1737866;81;21157;-56
2021/08/22 14:02:13;;;;;;;4.50;1.70;;;;;;;25.52;39.82;100811.79;1747666;81;21698;-56
2021/08/22 14:05:19;;;;;;;3.90;2.00;;;;;;;25.56;39.20;100812.11;1702756;83;21217;-55
2021/08/22 14:08:25;;;;;;;4.37;1.65;;;;;;;25.59;39.36;100809.64;1749650;80;21445;-56
2021/08/22 14:11:31;;;;;;;3.72;1.60;;;;;;;25.64;39.50;100806.86;1761315;81;21177;-57
2021/08/22 14:14:37;;;;;;;4.25;1.65;;;;;;;25.69;39.89;100811.13;1769577;79;21393;-57
2021/08/22 14:17:44;;;;;;;2.92;1.80;;;;;;;25.75;39.35;100815.67;1761897;81;21154;-55
2021/08/22 14:20:50;;;;;;;2.85;1.62;;;;;;;25.77;39.17;100808.39;1755927;79;21938;-57
2021/08/22 14:23:57;;;;;;;5.12;1.65;;;;;;;25.78;38.70;100810.11;1804926;78;21299;-56
2021/08/22 14:27:03;;;;;;;2.30;1.60;;;;;;;25.74;38.21;100811.73;1780418;79;21229;-57
2021/08/22 14:30:12;;;;;;;2.20;1.35;;;;;;;25.67;38.55;100806.91;1745235;82;21601;-56
2021/08/22 14:33:17;;;;;;;2.22;1.30;;;;;;;25.59;38.42;100812.98;1729805;81;21709;-57
2021/08/22 14:36:22;;;;;;;2.22;1.27;;;;;;;25.50;38.48;100803.36;1736741;82;21256;-56
2021/08/22 14:39:27;;;;;;;6.17;1.57;;;;;;;25.44;38.25;100810.85;1799727;78;21718;-56